createdAt,value
2023-03-17T00:02:05.144Z,22.20
2023-03-17T00:04:33.446Z,34.20
2023-03-17T00:07:01.822Z,29.00
2023-03-17T00:09:29.909Z,31.90
2023-03-17T00:11:58.628Z,32.10
2023-03-17T00:14:26.755Z,36.20
2023-03-17T00:16:54.789Z,33.70
2023-03-17T00:19:32.338Z,31.90
2023-03-17T00:22:01.472Z,37.90
2023-03-17T00:24:29.942Z,35.70
2023-03-17T00:26:58.228Z,33.60
2023-03-17T00:29:26.961Z,31.00
2023-03-17T00:31:57.734Z,31.20
2023-03-17T00:34:25.891Z,35.80
2023-03-17T00:36:53.820Z,32.60
2023-03-17T00:39:25.520Z,34.60
2023-03-17T00:41:55.633Z,32.00
2023-03-17T00:44:24.306Z,27.80
2023-03-17T00:46:54.422Z,32.60
2023-03-17T00:49:25.126Z,28.60
2023-03-17T00:51:53.168Z,25.60
2023-03-17T00:54:23.390Z,21.80
2023-03-17T00:56:52.653Z,24.10
2023-03-17T00:59:24.344Z,23.60
2023-03-17T01:01:52.603Z,19.60
2023-03-17T01:04:23.007Z,21.50
2023-03-17T01:06:53.070Z,18.30
2023-03-17T01:09:25.976Z,20.50
2023-03-17T01:11:55.720Z,21.80
2023-03-17T01:14:25.206Z,21.80
2023-03-17T01:16:53.308Z,17.90
2023-03-17T01:19:22.176Z,19.40
2023-03-17T01:21:50.343Z,18.70
2023-03-17T01:24:18.659Z,23.10
2023-03-17T01:26:47.142Z,19.00
2023-03-17T01:29:16.611Z,20.70
2023-03-17T01:31:46.246Z,19.70
2023-03-17T01:34:14.331Z,22.80
2023-03-17T01:36:43.736Z,20.00
2023-03-17T01:39:12.907Z,20.40
2023-03-17T01:41:40.917Z,22.40
2023-03-17T01:44:17.213Z,22.60
2023-03-17T01:46:47.501Z,20.20
2023-03-17T01:49:27.867Z,18.10
2023-03-17T01:52:07.641Z,23.50
2023-03-17T01:54:52.883Z,16.90
2023-03-17T01:57:24.535Z,21.20
2023-03-17T01:59:58.874Z,21.30
2023-03-17T02:02:31.397Z,22.10
2023-03-17T02:05:00.344Z,22.60
2023-03-17T02:07:28.576Z,22.00
2023-03-17T02:09:58.129Z,25.90
2023-03-17T02:12:29.198Z,25.30
2023-03-17T02:14:57.962Z,24.60
2023-03-17T02:17:27.901Z,30.00
2023-03-17T02:19:56.199Z,23.30
2023-03-17T02:22:24.684Z,24.40
2023-03-17T02:24:58.549Z,22.00
2023-03-17T02:27:39.599Z,21.20
2023-03-17T02:30:11.962Z,21.20
2023-03-17T02:32:40.503Z,22.90
2023-03-17T02:35:09.677Z,19.50
2023-03-17T02:37:38.941Z,18.50
2023-03-17T02:40:08.203Z,14.40
2023-03-17T02:42:36.689Z,12.60
2023-03-17T02:45:06.389Z,14.10
2023-03-17T02:47:34.837Z,15.80
2023-03-17T02:50:04.806Z,15.20
2023-03-17T02:52:32.797Z,14.20
2023-03-17T02:55:00.956Z,15.30
2023-03-17T02:57:28.986Z,11.00
2023-03-17T02:59:57.007Z,11.40
2023-03-17T03:02:25.075Z,10.30
2023-03-17T03:04:53.286Z,13.10
2023-03-17T03:07:21.357Z,11.30
2023-03-17T03:09:49.395Z,13.00
2023-03-17T03:12:17.859Z,12.70
2023-03-17T03:14:46.107Z,11.50
2023-03-17T03:17:14.423Z,13.40
2023-03-17T03:19:42.609Z,16.00
2023-03-17T03:22:10.891Z,12.00
2023-03-17T03:24:38.920Z,12.00
2023-03-17T03:27:07.219Z,9.20
2023-03-17T03:29:35.491Z,9.50
2023-03-17T03:32:03.637Z,12.00
2023-03-17T03:34:31.919Z,8.90
2023-03-17T03:36:59.900Z,10.90
2023-03-17T03:39:27.858Z,11.20
2023-03-17T03:41:58.343Z,16.30
2023-03-17T03:44:26.379Z,14.00
2023-03-17T03:46:54.657Z,12.70
2023-03-17T03:49:23.039Z,12.50
2023-03-17T03:51:51.258Z,13.50
2023-03-17T03:54:19.324Z,11.40
2023-03-17T03:56:47.402Z,13.80
2023-03-17T03:59:15.396Z,11.80
2023-03-17T04:01:43.376Z,13.30
2023-03-17T04:04:11.340Z,12.10
2023-03-17T04:06:39.762Z,11.60
2023-03-17T04:09:09.352Z,15.30
2023-03-17T04:11:37.347Z,9.60
2023-03-17T04:14:06.547Z,15.30
2023-03-17T04:16:34.591Z,14.10
2023-03-17T04:19:02.944Z,14.10
2023-03-17T04:21:30.965Z,14.20
2023-03-17T04:23:59.259Z,13.00
2023-03-17T04:26:27.388Z,16.10
2023-03-17T04:28:55.644Z,14.20
2023-03-17T04:31:23.789Z,13.20
2023-03-17T04:33:52.355Z,15.60
2023-03-17T04:36:22.286Z,14.30
2023-03-17T04:38:50.891Z,18.30
2023-03-17T04:41:19.518Z,17.40
2023-03-17T04:43:47.985Z,17.40
2023-03-17T04:46:16.513Z,16.80
2023-03-17T04:48:44.851Z,18.50
2023-03-17T04:51:12.947Z,17.90
2023-03-17T04:53:41.206Z,14.90
2023-03-17T04:56:09.391Z,20.50
2023-03-17T04:58:38.311Z,19.90
2023-03-17T05:01:07.567Z,18.50
2023-03-17T05:03:36.206Z,20.20
2023-03-17T05:06:05.302Z,17.20
2023-03-17T05:08:33.401Z,18.40
2023-03-17T05:11:01.548Z,19.00
2023-03-17T05:13:29.717Z,21.40
2023-03-17T05:15:59.561Z,18.90
2023-03-17T05:18:28.174Z,19.20
2023-03-17T05:20:56.341Z,21.90
2023-03-17T05:23:24.756Z,21.10
2023-03-17T05:25:53.210Z,20.80
2023-03-17T05:28:22.231Z,19.90
2023-03-17T05:30:51.052Z,26.60
2023-03-17T05:33:20.334Z,23.00
2023-03-17T05:35:48.767Z,19.20
2023-03-17T05:38:17.237Z,20.30
2023-03-17T05:40:45.961Z,21.80
2023-03-17T05:43:14.249Z,21.50
2023-03-17T05:45:42.470Z,25.80
2023-03-17T05:48:12.452Z,24.00
2023-03-17T05:50:41.846Z,23.50
2023-03-17T05:53:10.783Z,24.30
2023-03-17T05:55:39.048Z,23.40
2023-03-17T05:58:08.010Z,25.10
2023-03-17T06:00:36.552Z,25.60
2023-03-17T06:03:05.250Z,25.10
2023-03-17T06:05:34.377Z,26.80
2023-03-17T06:08:02.620Z,27.90
2023-03-17T06:10:31.445Z,25.30
2023-03-17T06:13:03.876Z,26.50
2023-03-17T06:15:34.181Z,25.40
2023-03-17T06:18:05.291Z,25.00
2023-03-17T06:20:34.098Z,26.20
2023-03-17T06:23:05.289Z,26.40
2023-03-17T06:25:35.881Z,29.90
2023-03-17T06:28:05.749Z,33.70
2023-03-17T06:30:35.491Z,23.20
2023-03-17T06:33:04.067Z,28.40
2023-03-17T06:35:33.613Z,24.00
2023-03-17T06:38:02.508Z,23.30
2023-03-17T06:40:32.309Z,21.90
2023-03-17T06:43:01.345Z,26.40
2023-03-17T06:45:30.470Z,24.40
2023-03-17T06:47:59.014Z,24.90
2023-03-17T06:50:27.359Z,25.50
2023-03-17T06:52:56.149Z,26.90
2023-03-17T06:55:24.299Z,30.30
2023-03-17T06:57:52.683Z,24.70
2023-03-17T07:00:22.568Z,24.80
2023-03-17T07:02:51.346Z,27.80
2023-03-17T07:05:19.593Z,26.20
2023-03-17T07:07:47.933Z,23.90
2023-03-17T07:10:17.420Z,22.50
2023-03-17T07:12:46.121Z,20.20
2023-03-17T07:15:14.378Z,23.80
2023-03-17T07:17:42.672Z,26.50
2023-03-17T07:20:11.922Z,26.10
2023-03-17T07:22:41.180Z,29.60
2023-03-17T07:25:10.021Z,24.50
2023-03-17T07:27:38.916Z,26.90
2023-03-17T07:30:07.855Z,24.30
2023-03-17T07:32:36.384Z,22.80
2023-03-17T07:35:05.570Z,24.50
2023-03-17T07:37:33.817Z,23.90
2023-03-17T07:40:02.085Z,23.70
2023-03-17T07:42:30.387Z,25.50
2023-03-17T07:44:58.761Z,27.70
2023-03-17T07:47:27.202Z,30.10
2023-03-17T07:49:55.382Z,29.00
2023-03-17T07:52:23.467Z,29.60
2023-03-17T07:54:52.232Z,32.50
2023-03-17T07:57:20.491Z,29.10
2023-03-17T07:59:49.110Z,29.30
2023-03-17T08:02:18.387Z,24.10
2023-03-17T08:04:47.156Z,28.90
2023-03-17T08:07:15.710Z,25.40
2023-03-17T08:09:44.034Z,27.60
2023-03-17T08:12:12.331Z,29.10
2023-03-17T08:14:41.625Z,27.40
2023-03-17T08:17:10.632Z,24.80
2023-03-17T08:19:41.202Z,26.70
2023-03-17T08:22:09.979Z,23.90
2023-03-17T08:24:39.841Z,25.40
2023-03-17T08:27:08.838Z,24.30
2023-03-17T08:29:37.063Z,25.90
2023-03-17T08:32:05.973Z,26.00
2023-03-17T08:34:34.151Z,26.70
2023-03-17T08:37:03.010Z,28.30
2023-03-17T08:39:31.999Z,25.10
2023-03-17T08:42:00.135Z,27.10
2023-03-17T08:44:28.362Z,26.70
2023-03-17T08:46:57.061Z,25.80
2023-03-17T08:49:25.291Z,25.20
2023-03-17T08:51:53.731Z,26.90
2023-03-17T08:54:22.101Z,26.70
2023-03-17T08:56:50.196Z,27.10
2023-03-17T08:59:18.274Z,28.10
2023-03-17T09:01:47.224Z,23.10
2023-03-17T09:04:15.591Z,25.90
2023-03-17T09:07:01.298Z,23.20
2023-03-17T09:09:31.278Z,25.10
2023-03-17T09:11:59.488Z,24.20
2023-03-17T09:14:28.980Z,21.00
2023-03-17T09:16:57.805Z,23.10
2023-03-17T09:19:26.061Z,25.60
2023-03-17T09:21:54.219Z,24.80
2023-03-17T09:24:22.331Z,21.30
2023-03-17T09:26:50.566Z,21.90
2023-03-17T09:29:18.714Z,22.70
2023-03-17T09:31:47.658Z,20.30
2023-03-17T09:34:15.725Z,21.00
2023-03-17T09:36:43.947Z,20.20
2023-03-17T09:39:12.872Z,21.70
2023-03-17T09:41:43.721Z,19.30
2023-03-17T09:44:23.055Z,21.40
2023-03-17T09:47:25.630Z,19.80
2023-03-17T09:50:01.324Z,19.00
2023-03-17T09:52:32.101Z,19.70
2023-03-17T09:55:03.456Z,19.50
2023-03-17T09:57:37.184Z,22.00
2023-03-17T10:00:07.981Z,20.00
2023-03-17T10:02:40.629Z,16.50
2023-03-17T10:05:23.464Z,23.00
2023-03-17T10:08:28.893Z,18.90
2023-03-17T10:11:15.004Z,14.70
2023-03-17T10:13:54.969Z,16.70
2023-03-17T10:16:35.339Z,23.90
2023-03-17T10:19:13.025Z,17.20
2023-03-17T10:21:50.068Z,18.60
2023-03-17T10:24:19.711Z,17.40
2023-03-17T10:26:51.107Z,17.50
2023-03-17T10:29:22.847Z,19.90
2023-03-17T10:31:53.344Z,20.00
2023-03-17T10:34:32.293Z,14.50
2023-03-17T10:37:05.765Z,15.20
2023-03-17T10:39:49.384Z,16.50
2023-03-17T10:42:29.277Z,15.50
2023-03-17T10:45:13.382Z,17.00
2023-03-17T10:47:47.345Z,15.70
2023-03-17T10:50:18.470Z,17.40
2023-03-17T10:52:47.942Z,17.80
2023-03-17T10:55:21.499Z,14.00
2023-03-17T11:00:22.036Z,14.20
2023-03-17T11:02:58.755Z,18.20
2023-03-17T11:05:30.411Z,20.90
2023-03-17T11:08:18.545Z,15.00
2023-03-17T11:10:53.799Z,16.00
2023-03-17T11:13:22.032Z,15.40
2023-03-17T11:15:54.651Z,14.40
2023-03-17T11:18:30.600Z,14.10
2023-03-17T11:21:08.356Z,14.10
2023-03-17T11:24:01.934Z,14.50
2023-03-17T11:26:39.074Z,17.70
2023-03-17T11:29:24.608Z,14.20
2023-03-17T11:32:11.168Z,15.50
2023-03-17T11:34:45.180Z,19.10
2023-03-17T11:37:19.505Z,15.10
2023-03-17T11:40:15.869Z,13.90
2023-03-17T11:42:53.516Z,14.80
2023-03-17T11:45:38.303Z,16.20
2023-03-17T11:48:32.322Z,15.50
2023-03-17T11:54:01.173Z,12.10
2023-03-17T11:56:57.747Z,13.10
2023-03-17T11:59:36.335Z,14.80
2023-03-17T12:02:17.441Z,17.70
2023-03-17T12:05:21.932Z,15.40
2023-03-17T12:10:28.854Z,16.50
2023-03-17T12:13:07.096Z,14.80
2023-03-17T12:15:51.172Z,14.00
2023-03-17T12:18:33.095Z,13.20
2023-03-17T12:21:09.705Z,15.40
2023-03-17T12:23:48.234Z,18.20
2023-03-17T12:26:35.162Z,15.00
2023-03-17T12:29:37.999Z,14.50
2023-03-17T12:32:12.564Z,18.80
2023-03-17T12:34:52.081Z,17.80
2023-03-17T12:37:21.591Z,17.60
2023-03-17T12:39:56.266Z,15.90
2023-03-17T12:42:33.028Z,16.00
2023-03-17T12:45:30.754Z,15.90
2023-03-17T12:48:17.477Z,14.60
2023-03-17T12:51:29.955Z,13.60
2023-03-17T12:54:00.259Z,13.50
2023-03-17T12:56:31.680Z,13.90
2023-03-17T12:59:06.190Z,13.10
2023-03-17T13:01:40.678Z,12.50
2023-03-17T13:05:00.113Z,14.50
2023-03-17T13:08:00.413Z,11.80
2023-03-17T13:10:48.097Z,13.00
2023-03-17T13:13:41.178Z,13.60
2023-03-17T13:16:41.287Z,13.70
2023-03-17T13:19:16.549Z,12.70
2023-03-17T13:21:53.363Z,12.60
2023-03-17T13:24:34.522Z,11.70
2023-03-17T13:27:04.747Z,12.50
2023-03-17T13:29:33.013Z,10.50
2023-03-17T13:32:16.055Z,12.60
2023-03-17T13:35:18.109Z,13.60
2023-03-17T13:38:13.480Z,10.50
2023-03-17T13:41:12.578Z,11.90
2023-03-17T13:43:50.349Z,12.90
2023-03-17T13:46:25.637Z,13.20
2023-03-17T13:48:56.145Z,12.20
2023-03-17T13:51:27.505Z,18.20
2023-03-17T13:53:58.172Z,13.80
2023-03-17T13:56:41.601Z,12.50
2023-03-17T13:59:16.010Z,9.40
2023-03-17T14:01:55.822Z,11.00
2023-03-17T14:04:30.975Z,12.00
2023-03-17T14:07:07.023Z,9.30
2023-03-17T14:09:42.425Z,12.60
2023-03-17T14:12:22.020Z,9.10
2023-03-17T14:15:07.049Z,11.40
2023-03-17T14:17:50.667Z,10.00
2023-03-17T14:20:20.457Z,8.60
2023-03-17T14:22:55.721Z,13.60
2023-03-17T14:25:27.403Z,9.40
2023-03-17T14:27:58.137Z,8.30
2023-03-17T14:30:29.468Z,11.60
2023-03-17T14:33:05.592Z,10.20
2023-03-17T14:35:39.349Z,15.50
2023-03-17T14:41:01.559Z,12.30
2023-03-17T14:43:29.773Z,10.80
2023-03-17T14:46:14.805Z,11.10
2023-03-17T14:48:46.900Z,11.30
2023-03-17T14:51:15.097Z,10.50
2023-03-17T14:53:46.487Z,13.30
2023-03-17T14:56:14.819Z,12.60
2023-03-17T14:58:45.689Z,11.80
2023-03-17T15:01:18.543Z,12.30
2023-03-17T15:03:59.695Z,12.50
2023-03-17T15:06:30.134Z,11.50
2023-03-17T15:09:00.527Z,12.70
2023-03-17T15:11:48.233Z,11.90
2023-03-17T15:14:21.727Z,10.20
2023-03-17T15:16:53.468Z,10.10
2023-03-17T15:19:21.568Z,10.90
2023-03-17T15:21:50.025Z,12.20
2023-03-17T15:24:28.918Z,11.70
2023-03-17T15:27:18.007Z,10.60
2023-03-17T15:29:46.786Z,13.60
2023-03-17T15:32:20.092Z,13.50
2023-03-17T15:34:50.548Z,11.70
2023-03-17T15:37:27.621Z,12.40
2023-03-17T15:39:56.740Z,12.00
2023-03-17T15:42:28.324Z,17.90
2023-03-17T15:44:57.004Z,14.20
2023-03-17T15:47:28.393Z,15.60
2023-03-17T15:50:13.738Z,12.50
2023-03-17T15:52:42.949Z,12.10
2023-03-17T15:55:22.473Z,14.80
2023-03-17T15:57:55.232Z,16.20
2023-03-17T16:00:26.636Z,14.20
2023-03-17T16:02:59.027Z,13.10
2023-03-17T16:05:31.343Z,14.80
2023-03-17T16:07:59.528Z,19.50
2023-03-17T16:10:30.848Z,16.00
2023-03-17T16:12:59.844Z,12.40
2023-03-17T16:15:31.622Z,14.40
2023-03-17T16:18:02.761Z,14.90
2023-03-17T16:20:38.665Z,14.40
2023-03-17T16:23:14.254Z,14.50
2023-03-17T16:25:42.578Z,15.00
2023-03-17T16:28:23.375Z,14.70
2023-03-17T16:30:53.190Z,18.70
2023-03-17T16:33:24.002Z,23.00
2023-03-17T16:35:53.722Z,21.60
2023-03-17T16:38:30.316Z,21.40
2023-03-17T16:41:08.006Z,16.00
2023-03-17T16:43:38.101Z,19.10
2023-03-17T16:46:07.290Z,18.60
2023-03-17T16:48:35.834Z,20.80
2023-03-17T16:51:05.124Z,17.70
2023-03-17T16:53:33.373Z,19.90
2023-03-17T16:56:01.664Z,17.00
2023-03-17T16:58:34.753Z,14.80
2023-03-17T17:01:09.991Z,18.60
2023-03-17T17:03:46.867Z,17.30
2023-03-17T17:06:15.582Z,18.10
2023-03-17T17:08:45.139Z,17.10
2023-03-17T17:11:15.267Z,19.30
2023-03-17T17:13:46.678Z,18.70
2023-03-17T17:16:23.066Z,18.50
2023-03-17T17:18:51.352Z,19.30
2023-03-17T17:21:19.522Z,18.90
2023-03-17T17:23:47.789Z,19.50
2023-03-17T17:26:15.973Z,20.20
2023-03-17T17:28:44.230Z,22.40
2023-03-17T17:31:12.555Z,21.00
2023-03-17T17:33:40.758Z,21.20
2023-03-17T17:36:14.799Z,28.20
2023-03-17T17:38:44.019Z,23.70
2023-03-17T17:41:13.118Z,22.20
2023-03-17T17:43:41.441Z,24.50
2023-03-17T17:46:12.497Z,24.10
2023-03-17T17:48:41.062Z,22.50
2023-03-17T17:51:09.444Z,22.10
2023-03-17T17:53:37.611Z,22.50
2023-03-17T17:56:07.333Z,21.60
2023-03-17T17:58:35.552Z,24.50
2023-03-17T18:01:05.605Z,19.90
2023-03-17T18:03:34.011Z,20.20
2023-03-17T18:06:02.231Z,20.30
2023-03-17T18:08:30.371Z,20.10
2023-03-17T18:10:58.834Z,21.40
2023-03-17T18:13:27.017Z,23.70
2023-03-17T18:15:55.168Z,22.70
2023-03-17T18:18:23.344Z,20.60
2023-03-17T18:20:52.645Z,21.70
2023-03-17T18:23:21.259Z,22.90
2023-03-17T18:25:49.720Z,26.30
2023-03-17T18:28:18.075Z,25.50
2023-03-17T18:30:47.017Z,27.70
2023-03-17T18:33:20.069Z,28.70
2023-03-17T18:35:51.144Z,27.50
2023-03-17T18:38:19.514Z,27.70
2023-03-17T18:40:47.648Z,23.40
2023-03-17T18:43:15.965Z,28.20
2023-03-17T18:45:44.954Z,25.50
2023-03-17T18:48:13.129Z,29.10
2023-03-17T18:50:41.299Z,27.30
2023-03-17T18:53:09.660Z,29.00
2023-03-17T18:55:38.043Z,28.00
2023-03-17T18:58:06.495Z,29.00
2023-03-17T19:00:34.735Z,28.00
2023-03-17T19:03:02.943Z,29.00
2023-03-17T19:05:31.512Z,28.90
2023-03-17T19:07:59.607Z,26.90
2023-03-17T19:10:27.788Z,27.00
2023-03-17T19:12:56.272Z,25.40
2023-03-17T19:15:25.454Z,23.10
2023-03-17T19:17:53.587Z,23.90
2023-03-17T19:20:22.165Z,26.70
2023-03-17T19:22:53.293Z,24.30
2023-03-17T19:25:21.721Z,25.80
2023-03-17T19:27:49.853Z,28.50
2023-03-17T19:30:18.814Z,23.00
2023-03-17T19:32:47.398Z,23.90
2023-03-17T19:35:15.599Z,21.20
2023-03-17T19:37:43.648Z,26.60
2023-03-17T19:40:13.441Z,31.10
2023-03-17T19:42:41.600Z,26.30
2023-03-17T19:45:10.762Z,28.00
2023-03-17T19:47:39.121Z,26.40
2023-03-17T19:50:07.907Z,24.50
2023-03-17T19:52:36.004Z,24.70
2023-03-17T19:55:07.009Z,28.30
2023-03-17T19:57:36.645Z,28.70
2023-03-17T20:00:08.950Z,28.60
2023-03-17T20:02:37.985Z,23.50
2023-03-17T20:05:07.044Z,28.00
2023-03-17T20:07:35.316Z,27.60
2023-03-17T20:10:05.229Z,27.40
2023-03-17T20:12:37.523Z,26.20
2023-03-17T20:15:07.900Z,22.60
2023-03-17T20:17:37.002Z,22.80
2023-03-17T20:20:07.203Z,27.00
2023-03-17T20:22:35.559Z,30.20
2023-03-17T20:25:06.905Z,27.80
2023-03-17T20:27:36.121Z,29.20
2023-03-17T20:30:05.940Z,28.80
2023-03-17T20:32:34.760Z,26.20
2023-03-17T20:35:02.987Z,28.50
2023-03-17T20:37:32.426Z,23.90
2023-03-17T20:40:02.973Z,32.60
2023-03-17T20:42:31.470Z,30.60
2023-03-17T20:45:00.277Z,39.10
2023-03-17T20:47:28.611Z,29.30
2023-03-17T20:49:58.969Z,25.20
2023-03-17T20:52:30.130Z,27.30
2023-03-17T20:55:00.229Z,26.20
2023-03-17T20:57:28.924Z,23.00
2023-03-17T20:59:58.188Z,24.30
2023-03-17T21:02:26.300Z,25.40
2023-03-17T21:04:54.664Z,27.00
2023-03-17T21:07:22.758Z,27.10
2023-03-17T21:09:51.709Z,27.50
2023-03-17T21:12:21.070Z,28.30
2023-03-17T21:14:49.891Z,26.60
2023-03-17T21:17:18.262Z,32.20
2023-03-17T21:19:46.488Z,28.50
2023-03-17T21:22:14.635Z,26.90
2023-03-17T21:24:42.740Z,27.30
2023-03-17T21:27:11.376Z,25.90
2023-03-17T21:29:40.600Z,27.60
2023-03-17T21:32:08.820Z,29.40
2023-03-17T21:34:38.307Z,24.90
2023-03-17T21:37:06.413Z,24.80
2023-03-17T21:39:36.300Z,26.30
2023-03-17T21:42:05.352Z,28.70
2023-03-17T21:44:33.477Z,24.40
2023-03-17T21:47:03.098Z,25.20
2023-03-17T21:49:31.233Z,28.30
2023-03-17T21:51:59.466Z,23.00
2023-03-17T21:54:28.505Z,27.20
2023-03-17T21:56:57.247Z,30.50
2023-03-17T21:59:25.706Z,27.10
2023-03-17T22:01:53.796Z,23.90
2023-03-17T22:04:21.852Z,25.90
2023-03-17T22:06:53.394Z,22.60
2023-03-17T22:09:22.852Z,22.10
2023-03-17T22:11:50.917Z,23.50
2023-03-17T22:14:20.797Z,25.70
2023-03-17T22:16:49.587Z,25.60
2023-03-17T22:19:21.013Z,22.40
2023-03-17T22:21:50.223Z,21.70
2023-03-17T22:24:18.437Z,22.40
2023-03-17T22:26:46.816Z,23.30
2023-03-17T22:29:16.224Z,22.20
2023-03-17T22:31:44.466Z,22.60
2023-03-17T22:34:12.788Z,20.70
2023-03-17T22:36:41.622Z,20.80
2023-03-17T22:39:10.613Z,20.60
2023-03-17T22:41:39.271Z,23.10
2023-03-17T22:44:09.204Z,20.90
2023-03-17T22:46:40.941Z,21.10
2023-03-17T22:49:09.723Z,21.30
2023-03-17T22:51:38.776Z,18.60
2023-03-17T22:54:08.678Z,18.80
2023-03-17T22:56:37.694Z,16.10
2023-03-17T22:59:06.017Z,18.80
2023-03-17T23:01:34.205Z,17.80
2023-03-17T23:04:02.400Z,21.60
2023-03-17T23:06:30.880Z,20.70
2023-03-17T23:08:58.970Z,18.00
2023-03-17T23:11:27.100Z,17.90
2023-03-17T23:13:55.904Z,20.20
2023-03-17T23:16:24.436Z,21.40
2023-03-17T23:18:52.814Z,21.60
2023-03-17T23:21:33.371Z,20.50
2023-03-17T23:24:02.509Z,22.20
2023-03-17T23:26:32.121Z,24.20
2023-03-17T23:29:00.866Z,24.70
2023-03-17T23:31:29.078Z,21.20
2023-03-17T23:33:57.153Z,19.60
2023-03-17T23:36:25.364Z,22.80
2023-03-17T23:38:53.634Z,20.10
2023-03-17T23:41:22.800Z,24.60
2023-03-17T23:43:51.202Z,22.20
2023-03-17T23:46:20.723Z,20.70
2023-03-17T23:48:49.442Z,18.50
2023-03-17T23:51:18.017Z,19.70
2023-03-17T23:53:46.575Z,20.40
2023-03-17T23:56:14.901Z,18.70
2023-03-17T23:58:43.452Z,23.40
